createdAt,value
2022-08-29T00:00:59.023Z,967.99
2022-08-29T00:01:59.389Z,967.96
2022-08-29T00:02:59.659Z,967.97
2022-08-29T00:03:59.991Z,968.00
2022-08-29T00:05:00.224Z,967.99
2022-08-29T00:06:00.527Z,967.97
2022-08-29T00:07:00.826Z,967.98
2022-08-29T00:08:01.149Z,967.95
2022-08-29T00:09:01.453Z,967.97
2022-08-29T00:10:01.798Z,967.97
2022-08-29T00:11:02.098Z,967.97
2022-08-29T00:12:02.390Z,967.98
2022-08-29T00:13:02.678Z,967.94
2022-08-29T00:14:02.997Z,967.94
2022-08-29T00:15:03.305Z,967.90
2022-08-29T00:16:03.599Z,967.93
2022-08-29T00:17:03.902Z,967.92
2022-08-29T00:18:04.196Z,967.93
2022-08-29T00:19:04.515Z,967.93
2022-08-29T00:20:04.819Z,967.97
2022-08-29T00:21:05.118Z,968.00
2022-08-29T00:22:05.476Z,967.98
2022-08-29T00:23:05.649Z,967.97
2022-08-29T00:24:05.957Z,967.97
2022-08-29T00:25:06.243Z,967.99
2022-08-29T00:26:06.581Z,967.97
2022-08-29T00:27:06.893Z,968.02
2022-08-29T00:28:07.261Z,967.93
2022-08-29T00:29:07.471Z,968.00
2022-08-29T00:30:07.739Z,967.98
2022-08-29T00:31:08.068Z,967.98
2022-08-29T00:32:08.425Z,967.94
2022-08-29T00:33:08.669Z,967.94
2022-08-29T00:34:08.963Z,967.98
2022-08-29T00:35:09.267Z,967.96
2022-08-29T00:36:09.585Z,967.92
2022-08-29T00:37:09.894Z,967.97
2022-08-29T00:38:10.283Z,967.91
2022-08-29T00:39:10.460Z,967.91
2022-08-29T00:40:10.772Z,967.92
2022-08-29T00:41:11.108Z,967.93
2022-08-29T00:42:11.402Z,967.93
2022-08-29T00:43:11.710Z,967.93
2022-08-29T00:44:12.009Z,967.89
2022-08-29T00:45:12.318Z,967.92
2022-08-29T00:46:16.494Z,967.92
2022-08-29T00:47:12.991Z,967.88
2022-08-29T00:48:13.457Z,967.90
2022-08-29T00:49:13.436Z,967.90
2022-08-29T00:50:13.755Z,967.88
2022-08-29T00:51:14.068Z,967.88
2022-08-29T00:52:14.403Z,967.91
2022-08-29T02:56:47.564Z,968.13
2022-08-29T02:57:49.117Z,968.10
2022-08-29T02:58:48.013Z,968.06
2022-08-29T02:59:48.362Z,968.11
2022-08-29T03:00:48.601Z,968.10
2022-08-29T03:01:48.871Z,968.07
2022-08-29T03:02:49.108Z,968.07
2022-08-29T03:03:49.386Z,968.05
2022-08-29T03:04:49.706Z,968.07
2022-08-29T03:05:50.013Z,968.05
2022-08-29T03:06:50.328Z,968.06
2022-08-29T03:07:51.140Z,968.07
2022-08-29T03:08:50.949Z,968.07
2022-08-29T03:09:51.288Z,968.06
2022-08-29T03:10:51.582Z,968.06
2022-08-29T03:11:51.885Z,968.05
2022-08-29T03:12:52.195Z,968.08
2022-08-29T03:13:52.488Z,968.08
2022-08-29T03:14:53.788Z,968.08
2022-08-29T03:15:53.063Z,968.04
2022-08-29T03:16:53.263Z,968.05
2022-08-29T03:17:53.586Z,968.08
2022-08-29T03:18:53.904Z,968.03
2022-08-29T03:19:54.198Z,968.08
2022-08-29T03:20:54.507Z,968.05
2022-08-29T03:21:54.804Z,968.02
2022-08-29T03:22:55.120Z,968.03
2022-08-29T03:23:55.417Z,968.00
2022-08-29T03:24:55.746Z,968.03
2022-08-29T03:25:55.925Z,968.03
2022-08-29T03:26:56.877Z,968.02
2022-08-29T03:27:56.465Z,968.01
2022-08-29T03:28:56.764Z,967.99
2022-08-29T03:29:57.098Z,968.01
2022-08-29T03:30:57.441Z,968.03
2022-08-29T03:31:57.659Z,968.00
2022-08-29T03:32:57.960Z,968.07
2022-08-29T03:33:58.232Z,968.02
2022-08-29T03:34:58.535Z,968.05
2022-08-29T03:35:58.798Z,968.05
2022-08-29T03:36:59.133Z,968.07
2022-08-29T03:37:59.436Z,968.04
2022-08-29T03:38:59.735Z,968.01
2022-08-29T03:40:00.037Z,967.97
2022-08-29T03:41:00.247Z,967.98
2022-08-29T03:42:00.544Z,967.93
2022-08-29T03:43:00.864Z,967.95
2022-08-29T03:44:01.183Z,967.96
2022-08-29T03:45:01.490Z,967.92
2022-08-29T03:46:01.826Z,967.98
2022-08-29T03:47:02.170Z,967.99
2022-08-29T03:48:02.466Z,967.99
2022-08-29T03:49:02.755Z,967.95
2022-08-29T03:50:03.059Z,967.93
2022-08-29T03:51:03.364Z,967.91
2022-08-29T03:52:03.706Z,967.92
2022-08-29T03:53:03.994Z,967.91
2022-08-29T03:54:04.326Z,967.91
2022-08-29T03:55:04.627Z,967.89
2022-08-29T03:56:04.948Z,967.93
2022-08-29T03:57:05.263Z,967.92
2022-08-29T03:58:05.563Z,967.95
2022-08-29T03:59:05.871Z,967.94
2022-08-29T04:00:06.186Z,967.95
2022-08-29T04:01:06.468Z,967.94
2022-08-29T04:02:06.849Z,967.93
2022-08-29T04:03:07.160Z,967.96
2022-08-29T04:04:07.394Z,967.92
2022-08-29T04:05:08.459Z,967.95
2022-08-29T04:06:08.007Z,967.95
2022-08-29T04:07:08.341Z,967.97
2022-08-29T04:08:08.839Z,967.98
2022-08-29T04:09:08.978Z,967.96
2022-08-29T04:10:09.282Z,967.99
2022-08-29T04:11:09.580Z,967.98
2022-08-29T04:12:09.921Z,968.01
2022-08-29T04:13:10.228Z,967.95
2022-08-29T04:14:10.516Z,967.98
2022-08-29T04:15:10.797Z,967.96
2022-08-29T04:16:11.150Z,967.98
2022-08-29T04:17:11.382Z,968.02
2022-08-29T04:18:11.772Z,968.00
2022-08-29T04:19:12.019Z,967.99
2022-08-29T04:20:12.333Z,968.03
2022-08-29T04:21:12.632Z,968.01
2022-08-29T04:22:12.942Z,968.02
2022-08-29T04:23:13.238Z,968.02
2022-08-29T04:24:13.537Z,968.05
2022-08-29T04:25:13.810Z,968.05
2022-08-29T04:26:35.190Z,968.08
2022-08-29T04:27:15.442Z,968.12
2022-08-29T04:28:14.913Z,968.11
2022-08-29T04:29:14.969Z,968.11
2022-08-29T04:30:15.257Z,968.15
2022-08-29T04:31:15.578Z,968.13
2022-08-29T04:32:15.809Z,968.12
2022-08-29T04:33:17.063Z,968.18
2022-08-29T04:34:17.429Z,968.17
2022-08-29T04:35:16.670Z,968.17
2022-08-29T04:36:16.968Z,968.21
2022-08-29T04:37:17.322Z,968.22
2022-08-29T04:38:17.530Z,968.26
2022-08-29T04:39:17.819Z,968.22
2022-08-29T04:40:18.159Z,968.23
2022-08-29T04:41:18.381Z,968.22
2022-08-29T04:42:20.334Z,968.23
2022-08-29T04:43:18.988Z,968.32
2022-08-29T04:44:19.292Z,968.31
2022-08-29T04:45:19.589Z,968.32
2022-08-29T04:46:24.426Z,968.32
2022-08-29T04:47:21.210Z,968.34
2022-08-29T04:48:20.446Z,968.37
2022-08-29T04:49:20.789Z,968.41
2022-08-29T04:50:20.971Z,968.40
2022-08-29T04:51:21.277Z,968.41
2022-08-29T04:52:21.574Z,968.40
2022-08-29T04:53:21.887Z,968.39
2022-08-29T04:54:22.211Z,968.38
2022-08-29T04:55:22.662Z,968.42
2022-08-29T04:56:22.818Z,968.36
2022-08-29T04:57:23.184Z,968.43
2022-08-29T04:58:23.370Z,968.43
2022-08-29T04:59:23.669Z,968.43
2022-08-29T05:00:23.975Z,968.48
2022-08-29T05:01:24.398Z,968.46
2022-08-29T05:02:24.550Z,968.44
2022-08-29T05:03:24.759Z,968.45
2022-08-29T05:04:25.070Z,968.46
2022-08-29T05:05:25.375Z,968.46
2022-08-29T05:06:25.683Z,968.46
2022-08-29T05:07:25.977Z,968.48
2022-08-29T05:08:26.259Z,968.49
2022-08-29T05:09:26.578Z,968.53
2022-08-29T05:10:26.897Z,968.54
2022-08-29T05:11:27.201Z,968.54
2022-08-29T05:12:27.499Z,968.56
2022-08-29T05:13:27.803Z,968.55
2022-08-29T05:14:28.097Z,968.57
2022-08-29T05:15:28.420Z,968.57
2022-08-29T05:16:28.623Z,968.51
2022-08-29T05:17:28.929Z,968.52
2022-08-29T05:18:29.220Z,968.55
2022-08-29T05:19:29.549Z,968.54
2022-08-29T05:20:30.845Z,968.59
2022-08-29T05:21:30.085Z,968.59
2022-08-29T05:22:30.409Z,968.61
2022-08-29T05:23:30.707Z,968.66
2022-08-29T05:24:31.006Z,968.71
2022-08-29T05:25:31.311Z,968.67
2022-08-29T05:26:31.579Z,968.70
2022-08-29T05:27:31.922Z,968.69
2022-08-29T05:28:32.110Z,968.67
2022-08-29T05:29:32.403Z,968.67
2022-08-29T05:30:34.605Z,968.64
2022-08-29T05:31:33.093Z,968.65
2022-08-29T05:32:33.279Z,968.64
2022-08-29T05:33:33.572Z,968.67
2022-08-29T05:34:35.129Z,968.66
2022-08-29T05:35:34.190Z,968.67
2022-08-29T05:36:34.493Z,968.67
2022-08-29T05:37:34.766Z,968.68
2022-08-29T05:38:35.086Z,968.71
2022-08-29T05:39:35.414Z,968.73
2022-08-29T05:40:35.742Z,968.72
2022-08-29T05:41:38.425Z,968.71
2022-08-29T05:42:36.345Z,968.70
2022-08-29T05:43:36.633Z,968.73
2022-08-29T05:44:36.920Z,968.66
2022-08-29T05:45:37.225Z,968.66
2022-08-29T05:46:37.533Z,968.68
2022-08-29T05:47:37.884Z,968.65
2022-08-29T05:48:38.183Z,968.71
2022-08-29T05:49:38.466Z,968.69
2022-08-29T05:50:38.774Z,968.69
2022-08-29T05:51:39.964Z,968.73
2022-08-29T05:52:39.438Z,968.68
2022-08-29T05:53:39.734Z,968.71
2022-08-29T05:54:40.068Z,968.67
2022-08-29T05:55:40.252Z,968.69
2022-08-29T05:56:40.610Z,968.73
2022-08-29T05:57:40.931Z,968.71
2022-08-29T05:58:41.222Z,968.71
2022-08-29T05:59:41.571Z,968.77
2022-08-29T06:00:41.880Z,968.73
2022-08-29T06:01:42.138Z,968.78
2022-08-29T06:02:42.558Z,968.79
2022-08-29T06:03:45.938Z,968.79
2022-08-29T06:04:43.015Z,968.81
2022-08-29T06:05:43.339Z,968.81
2022-08-29T06:06:43.626Z,968.82
2022-08-29T06:07:43.910Z,968.77
2022-08-29T06:08:44.193Z,968.82
2022-08-29T06:09:44.560Z,968.78
2022-08-29T06:10:44.866Z,968.78
2022-08-29T06:11:45.182Z,968.80
2022-08-29T06:12:45.489Z,968.81
2022-08-29T06:13:45.801Z,968.83
2022-08-29T06:14:50.494Z,968.87
2022-08-29T06:15:46.481Z,968.84
2022-08-29T06:16:46.683Z,968.86
2022-08-29T06:17:47.036Z,968.89
2022-08-29T06:18:47.234Z,968.91
2022-08-29T06:19:47.543Z,968.90
2022-08-29T06:20:47.857Z,968.89
2022-08-29T06:21:48.156Z,968.89
2022-08-29T06:22:48.488Z,968.92
2022-08-29T06:23:48.782Z,968.91
2022-08-29T06:24:49.091Z,968.93
2022-08-29T06:25:49.404Z,968.94
2022-08-29T06:26:49.643Z,968.92
2022-08-29T06:27:49.972Z,968.91
2022-08-29T06:28:50.276Z,968.97
2022-08-29T06:29:50.559Z,968.95
2022-08-29T06:30:50.890Z,968.93
2022-08-29T06:31:51.221Z,969.02
2022-08-29T06:32:51.410Z,968.96
2022-08-29T06:33:51.743Z,968.96
2022-08-29T06:34:52.047Z,968.96
2022-08-29T06:35:52.416Z,968.99
2022-08-29T06:36:52.595Z,969.00
2022-08-29T06:37:52.892Z,968.96
2022-08-29T06:38:53.170Z,968.97
2022-08-29T06:39:53.453Z,968.98
2022-08-29T06:40:53.762Z,968.97
2022-08-29T06:41:54.075Z,969.00
2022-08-29T06:42:54.405Z,968.98
2022-08-29T06:43:54.713Z,968.98
2022-08-29T06:44:55.031Z,968.99
2022-08-29T06:45:55.397Z,968.99
2022-08-29T06:46:55.565Z,968.96
2022-08-29T06:47:55.903Z,968.96
2022-08-29T06:48:56.196Z,968.94
2022-08-29T06:49:56.482Z,968.97
2022-08-29T06:50:56.774Z,968.99
2022-08-29T06:51:58.602Z,968.96
2022-08-29T06:53:14.539Z,968.98
2022-08-29T06:53:58.716Z,969.00
2022-08-29T06:54:57.947Z,969.00
2022-08-29T06:55:58.235Z,969.01
2022-08-29T06:56:58.533Z,969.04
2022-08-29T06:57:58.873Z,969.02
2022-08-29T06:58:59.156Z,969.09
2022-08-29T06:59:59.435Z,969.08
2022-08-29T07:00:59.768Z,969.08
2022-08-29T07:02:00.171Z,969.07
2022-08-29T07:03:00.449Z,969.07
2022-08-29T07:04:00.684Z,969.10
2022-08-29T07:05:01.688Z,969.09
2022-08-29T07:06:01.165Z,969.10
2022-08-29T07:07:01.464Z,969.10
2022-08-29T07:08:01.767Z,969.15
2022-08-29T07:09:02.093Z,969.18
2022-08-29T07:10:02.375Z,969.19
2022-08-29T07:11:02.692Z,969.17
2022-08-29T07:12:03.062Z,969.19
2022-08-29T07:13:03.245Z,969.16
2022-08-29T07:14:03.559Z,969.17
2022-08-29T07:15:03.856Z,969.13
2022-08-29T07:16:04.229Z,969.09
2022-08-29T07:17:04.410Z,969.11
2022-08-29T07:18:04.713Z,969.12
2022-08-29T07:19:05.001Z,969.10
2022-08-29T07:20:05.279Z,969.11
2022-08-29T07:21:05.573Z,969.07
2022-08-29T07:22:05.891Z,969.08
2022-08-29T07:23:06.185Z,969.09
2022-08-29T07:24:06.526Z,969.09
2022-08-29T07:25:06.717Z,969.06
2022-08-29T07:26:07.015Z,969.03
2022-08-29T07:27:08.267Z,969.09
2022-08-29T07:28:07.914Z,969.02
2022-08-29T07:29:07.946Z,969.03
2022-08-29T07:30:08.240Z,969.03
2022-08-29T07:31:08.569Z,969.00
2022-08-29T07:32:08.796Z,968.99
2022-08-29T07:33:09.100Z,969.04
2022-08-29T07:34:09.389Z,969.02
2022-08-29T07:35:13.357Z,969.02
2022-08-29T07:36:09.968Z,969.06
2022-08-29T07:37:10.283Z,969.01
2022-08-29T07:38:10.580Z,969.08
2022-08-29T07:39:10.917Z,969.11
2022-08-29T07:40:11.263Z,969.11
2022-08-29T07:41:11.469Z,969.11
2022-08-29T07:42:11.687Z,969.12
2022-08-29T07:43:14.474Z,969.15
2022-08-29T07:44:13.313Z,969.16
2022-08-29T07:45:12.547Z,969.13
2022-08-29T07:46:12.916Z,969.13
2022-08-29T07:47:13.088Z,969.13
2022-08-29T07:48:13.397Z,969.11
2022-08-29T07:49:13.746Z,969.10
2022-08-29T07:50:15.824Z,969.07
2022-08-29T07:51:14.348Z,969.06
2022-08-29T07:52:14.679Z,969.03
2022-08-29T07:53:15.115Z,969.04
2022-08-29T07:54:15.314Z,969.03
2022-08-29T07:55:15.625Z,969.05
2022-08-29T07:56:15.937Z,969.03
2022-08-29T07:57:16.288Z,969.05
2022-08-29T07:58:16.654Z,969.07
2022-08-29T07:59:16.888Z,969.06
2022-08-29T08:00:17.195Z,969.06
2022-08-29T08:01:21.620Z,969.08
2022-08-29T08:02:17.775Z,969.08
2022-08-29T08:03:18.011Z,969.06
2022-08-29T08:04:18.321Z,969.07
2022-08-29T08:05:18.566Z,969.10
2022-08-29T08:06:18.862Z,969.09
2022-08-29T08:07:19.185Z,969.10
2022-08-29T08:08:19.823Z,969.11
2022-08-29T08:09:19.697Z,969.08
2022-08-29T08:10:19.985Z,969.10
2022-08-29T08:11:20.296Z,969.11
2022-08-29T08:12:20.603Z,969.10
2022-08-29T08:13:20.932Z,969.13
2022-08-29T08:14:21.246Z,969.07
2022-08-29T08:15:23.373Z,969.07
2022-08-29T08:16:21.811Z,969.12
2022-08-29T08:17:22.110Z,969.07
2022-08-29T08:18:22.444Z,969.09
2022-08-29T08:19:22.733Z,969.15
2022-08-29T08:20:23.012Z,969.14
2022-08-29T08:21:23.335Z,969.11
2022-08-29T08:22:23.599Z,969.15
2022-08-29T08:23:23.902Z,969.16
2022-08-29T08:24:24.215Z,969.14
2022-08-29T08:25:24.625Z,969.21
2022-08-29T08:26:24.803Z,969.21
2022-08-29T08:27:25.106Z,969.20
2022-08-29T08:28:25.450Z,969.18
2022-08-29T08:29:25.638Z,969.20
2022-08-29T08:30:26.102Z,969.23
2022-08-29T08:31:26.290Z,969.18
2022-08-29T08:32:27.672Z,969.27
2022-08-29T08:33:27.875Z,969.22
2022-08-29T08:34:27.091Z,969.22
2022-08-29T08:35:27.359Z,969.18
2022-08-29T08:36:27.840Z,969.18
2022-08-29T08:37:28.336Z,969.22
2022-08-29T08:38:28.309Z,969.19
2022-08-29T08:39:28.639Z,969.16
2022-08-29T08:40:28.970Z,969.17
2022-08-29T08:41:29.211Z,969.14
2022-08-29T08:42:29.580Z,969.21
2022-08-29T08:43:29.757Z,969.14
2022-08-29T08:44:30.066Z,969.15
2022-08-29T08:45:31.367Z,969.15
2022-08-29T08:46:30.661Z,969.10
2022-08-29T08:47:30.912Z,969.18
2022-08-29T08:48:31.229Z,969.11
2022-08-29T08:49:31.534Z,969.10
2022-08-29T08:50:31.852Z,969.10
2022-08-29T08:51:32.191Z,969.10
2022-08-29T08:52:32.505Z,969.10
2022-08-29T08:53:32.803Z,969.10
2022-08-29T08:54:33.087Z,969.12
2022-08-29T08:55:33.386Z,969.11
2022-08-29T08:56:33.684Z,969.14
2022-08-29T08:57:33.993Z,969.15
2022-08-29T08:58:34.328Z,969.15
2022-08-29T08:59:34.630Z,969.16
2022-08-29T09:00:34.925Z,969.16
2022-08-29T09:01:35.291Z,969.17
2022-08-29T09:02:35.604Z,969.23
2022-08-29T09:03:35.829Z,969.19
2022-08-29T09:04:36.113Z,969.19
2022-08-29T09:05:36.426Z,969.18
2022-08-29T09:06:36.664Z,969.19
2022-08-29T09:07:37.013Z,969.25
2022-08-29T09:08:37.210Z,969.26
2022-08-29T09:09:37.504Z,969.25
2022-08-29T09:10:37.798Z,969.26
2022-08-29T09:11:38.094Z,969.28
2022-08-29T09:12:38.407Z,969.24
2022-08-29T09:13:38.713Z,969.27
2022-08-29T09:14:39.027Z,969.28
2022-08-29T09:15:39.337Z,969.28
2022-08-29T09:16:39.691Z,969.30
2022-08-29T09:17:39.970Z,969.29
2022-08-29T09:18:40.146Z,969.24
2022-08-29T09:19:40.461Z,969.30
2022-08-29T09:20:40.759Z,969.26
2022-08-29T09:21:42.026Z,969.28
2022-08-29T09:22:41.382Z,969.29
2022-08-29T09:23:41.564Z,969.33
2022-08-29T09:24:41.849Z,969.38
2022-08-29T09:25:42.141Z,969.32
2022-08-29T09:26:42.484Z,969.33
2022-08-29T09:27:42.687Z,969.35
2022-08-29T09:28:43.006Z,969.34
2022-08-29T09:29:43.310Z,969.37
2022-08-29T09:30:43.608Z,969.36
2022-08-29T09:31:44.014Z,969.37
2022-08-29T09:32:44.215Z,969.40
2022-08-29T09:33:44.565Z,969.40
2022-08-29T09:35:07.446Z,969.40
2022-08-29T09:35:46.069Z,969.44
2022-08-29T09:36:46.068Z,969.43
2022-08-29T09:37:45.627Z,969.39
2022-08-29T09:38:45.901Z,969.42
2022-08-29T09:39:49.998Z,969.43
2022-08-29T09:40:47.584Z,969.45
2022-08-29T09:41:46.839Z,969.47
2022-08-29T09:42:47.211Z,969.46
2022-08-29T09:43:47.409Z,969.43
2022-08-29T09:44:47.712Z,969.48
2022-08-29T09:45:48.061Z,969.41
2022-08-29T09:46:48.250Z,969.46
2022-08-29T09:47:48.577Z,969.45
2022-08-29T09:48:48.921Z,969.43
2022-08-29T09:49:49.109Z,969.39
2022-08-29T09:50:49.432Z,969.42
2022-08-29T09:51:49.742Z,969.47
2022-08-29T09:52:50.061Z,969.37
2022-08-29T09:53:50.414Z,969.39
2022-08-29T09:54:50.703Z,969.39
2022-08-29T09:55:50.981Z,969.38
2022-08-29T09:56:51.264Z,969.33
2022-08-29T09:57:51.568Z,969.33
2022-08-29T09:58:51.887Z,969.28
2022-08-29T09:59:52.186Z,969.24
2022-08-29T10:00:52.512Z,969.29
2022-08-29T10:01:52.782Z,969.22
2022-08-29T10:02:53.066Z,969.26
2022-08-29T10:03:53.393Z,969.21
2022-08-29T10:04:55.510Z,969.17
2022-08-29T10:05:53.931Z,969.15
2022-08-29T10:06:54.241Z,969.17
2022-08-29T10:07:54.525Z,969.18
2022-08-29T10:08:54.832Z,969.17
2022-08-29T10:09:55.131Z,969.20
2022-08-29T10:10:55.408Z,969.23
2022-08-29T10:11:56.563Z,969.19
2022-08-29T10:12:56.006Z,969.15
2022-08-29T10:13:56.319Z,969.18
2022-08-29T10:14:56.659Z,969.18
2022-08-29T10:15:56.958Z,969.13
2022-08-29T10:16:57.339Z,969.12
2022-08-29T10:17:57.523Z,969.14
2022-08-29T10:18:57.820Z,969.15
2022-08-29T10:19:58.096Z,969.10
2022-08-29T10:20:58.404Z,969.09
2022-08-29T10:21:58.761Z,969.08
2022-08-29T10:22:59.053Z,969.10
2022-08-29T10:23:59.361Z,969.11
2022-08-29T10:24:59.669Z,969.13
2022-08-29T10:25:59.978Z,969.11
2022-08-29T10:27:00.313Z,969.15
2022-08-29T10:28:00.505Z,969.13
2022-08-29T10:29:00.810Z,969.13
2022-08-29T10:30:01.097Z,969.19
2022-08-29T10:31:01.351Z,969.15
2022-08-29T10:32:01.792Z,969.17
2022-08-29T10:33:01.997Z,969.16
2022-08-29T10:34:02.295Z,969.12
2022-08-29T10:35:02.592Z,969.14
2022-08-29T10:36:02.903Z,969.11
2022-08-29T10:37:03.247Z,969.12
2022-08-29T10:38:03.535Z,969.14
2022-08-29T10:39:03.844Z,969.12
2022-08-29T10:40:04.205Z,969.11
2022-08-29T10:41:04.472Z,969.09
2022-08-29T10:42:04.654Z,969.12
2022-08-29T10:43:04.943Z,969.06
2022-08-29T10:44:06.146Z,969.06
2022-08-29T10:45:05.526Z,969.03
2022-08-29T10:46:05.912Z,969.02
2022-08-29T10:47:06.121Z,969.04
2022-08-29T10:48:06.431Z,969.02
2022-08-29T10:49:06.766Z,969.01
2022-08-29T10:50:10.140Z,969.00
2022-08-29T10:51:08.369Z,969.05
2022-08-29T10:52:07.604Z,969.01
2022-08-29T10:53:07.908Z,968.99
2022-08-29T10:54:08.250Z,968.97
2022-08-29T10:55:08.581Z,969.04
2022-08-29T10:56:08.768Z,969.00
2022-08-29T10:57:09.072Z,969.02
2022-08-29T10:58:12.620Z,969.04
2022-08-29T10:59:09.680Z,969.01
2022-08-29T11:00:09.998Z,969.02
2022-08-29T11:01:10.466Z,969.02
2022-08-29T11:02:10.617Z,968.98
2022-08-29T11:03:10.931Z,969.01
2022-08-29T11:04:11.227Z,969.02
2022-08-29T11:05:12.342Z,969.01
2022-08-29T11:06:11.714Z,968.98
2022-08-29T11:07:12.015Z,968.99
2022-08-29T11:08:15.979Z,968.99
2022-08-29T11:09:12.574Z,969.02
2022-08-29T11:10:12.908Z,969.00
2022-08-29T11:11:13.097Z,969.01
2022-08-29T11:12:17.493Z,968.96
2022-08-29T11:13:13.621Z,968.96
2022-08-29T11:14:13.916Z,968.95
2022-08-29T11:15:14.285Z,968.95
2022-08-29T11:16:14.547Z,968.99
2022-08-29T11:17:14.771Z,968.97
2022-08-29T11:18:15.525Z,968.94
2022-08-29T11:19:21.560Z,969.04
2022-08-29T11:20:16.584Z,969.01
2022-08-29T11:21:15.834Z,968.97
2022-08-29T11:22:16.057Z,969.04
2022-08-29T11:23:16.397Z,968.98
2022-08-29T11:24:16.689Z,968.96
2022-08-29T11:25:16.962Z,968.94
2022-08-29T11:26:17.241Z,968.97
2022-08-29T11:27:17.510Z,968.90
2022-08-29T11:28:17.820Z,968.91
2022-08-29T11:29:18.127Z,968.88
2022-08-29T11:30:18.431Z,968.84
2022-08-29T11:31:18.813Z,968.87
2022-08-29T11:32:18.983Z,968.81
2022-08-29T11:33:19.311Z,968.86
2022-08-29T11:34:19.622Z,968.83
2022-08-29T11:35:19.919Z,968.85
2022-08-29T11:36:20.222Z,968.85
2022-08-29T11:37:20.530Z,968.87
2022-08-29T11:38:20.855Z,968.86
2022-08-29T11:39:21.118Z,968.84
2022-08-29T11:40:47.287Z,968.90
2022-08-29T11:41:26.617Z,968.84
2022-08-29T11:43:23.375Z,968.80
2022-08-29T11:44:22.610Z,968.81
2022-08-29T11:45:22.909Z,968.83
2022-08-29T11:46:23.256Z,968.80
2022-08-29T11:47:23.481Z,968.79
2022-08-29T11:48:25.620Z,968.78
2022-08-29T11:49:24.013Z,968.75
2022-08-29T11:50:24.321Z,968.75
2022-08-29T11:51:24.615Z,968.76
2022-08-29T11:52:24.918Z,968.76
2022-08-29T11:53:25.238Z,968.77
2022-08-29T11:54:25.545Z,968.79
2022-08-29T11:55:25.891Z,968.77
2022-08-29T11:56:27.813Z,968.74
2022-08-29T11:57:26.406Z,968.73
2022-08-29T11:58:26.704Z,968.76
2022-08-29T11:59:27.003Z,968.70
2022-08-29T12:00:27.357Z,968.70
2022-08-29T12:01:27.544Z,968.73
2022-08-29T12:02:27.955Z,968.70
2022-08-29T12:03:28.548Z,968.69
2022-08-29T12:04:28.572Z,968.68
2022-08-29T12:05:28.799Z,968.67
2022-08-29T12:06:29.138Z,968.68
2022-08-29T12:07:29.442Z,968.65
2022-08-29T12:08:36.818Z,968.67
2022-08-29T12:09:31.032Z,968.69
2022-08-29T12:10:30.282Z,968.62
2022-08-29T12:11:30.632Z,968.64
2022-08-29T12:12:30.919Z,968.61
2022-08-29T12:13:31.284Z,968.62
2022-08-29T12:14:37.334Z,968.61
2022-08-29T12:15:32.860Z,968.56
2022-08-29T12:16:32.225Z,968.60
2022-08-29T12:17:58.210Z,968.62
2022-08-29T12:18:36.507Z,968.62
2022-08-29T12:19:32.992Z,968.61
2022-08-29T12:20:33.313Z,968.63
2022-08-29T12:21:33.641Z,968.55
2022-08-29T12:22:33.992Z,968.56
2022-08-29T12:23:35.454Z,968.55
2022-08-29T12:24:34.457Z,968.53
2022-08-29T12:25:34.766Z,968.51
2022-08-29T12:26:35.049Z,968.49
2022-08-29T12:27:35.378Z,968.49
2022-08-29T12:28:35.701Z,968.48
2022-08-29T12:29:41.292Z,968.49
2022-08-29T12:30:37.286Z,968.46
2022-08-29T12:31:36.547Z,968.45
2022-08-29T12:32:40.164Z,968.44
2022-08-29T12:33:37.144Z,968.40
2022-08-29T12:34:37.333Z,968.41
2022-08-29T12:35:37.625Z,968.38
2022-08-29T12:36:37.860Z,968.40
2022-08-29T12:37:38.158Z,968.38
2022-08-29T12:38:42.137Z,968.32
2022-08-29T12:39:38.748Z,968.28
2022-08-29T12:40:39.139Z,968.29
2022-08-29T12:41:39.320Z,968.26
2022-08-29T12:42:39.661Z,968.23
2022-08-29T12:43:39.988Z,968.26
2022-08-29T12:44:40.308Z,968.24
2022-08-29T12:45:40.541Z,968.25
2022-08-29T12:46:40.892Z,968.24
2022-08-29T12:47:45.746Z,968.22
2022-08-29T12:48:41.436Z,968.22
2022-08-29T12:49:41.770Z,968.22
2022-08-29T12:50:42.078Z,968.21
2022-08-29T12:51:42.433Z,968.14
2022-08-29T12:52:42.610Z,968.21
2022-08-29T12:53:42.899Z,968.18
2022-08-29T12:54:45.978Z,968.14
2022-08-29T12:55:43.434Z,968.12
2022-08-29T12:56:43.749Z,968.15
2022-08-29T12:57:44.041Z,968.13
2022-08-29T12:58:44.382Z,968.16
2022-08-29T12:59:44.679Z,968.14
2022-08-29T13:00:44.966Z,968.17
2022-08-29T13:01:45.291Z,968.17
2022-08-29T13:02:45.562Z,968.20
2022-08-29T13:03:45.868Z,968.13
2022-08-29T13:04:46.192Z,968.14
2022-08-29T13:05:46.491Z,968.15
2022-08-29T13:06:46.820Z,968.12
2022-08-29T13:07:47.118Z,968.15
2022-08-29T13:08:47.397Z,968.14
2022-08-29T13:09:47.680Z,968.06
2022-08-29T13:10:47.954Z,968.05
2022-08-29T13:11:48.265Z,968.10
2022-08-29T13:12:48.560Z,968.09
2022-08-29T13:13:48.829Z,968.06
2022-08-29T13:14:49.153Z,968.02
2022-08-29T13:15:49.519Z,968.01
2022-08-29T13:16:49.719Z,967.97
2022-08-29T13:17:50.014Z,968.00
2022-08-29T13:19:09.746Z,967.98
2022-08-29T13:19:51.608Z,967.96
2022-08-29T13:20:50.908Z,967.94
2022-08-29T13:21:51.212Z,967.95
2022-08-29T13:22:51.530Z,967.94
2022-08-29T13:23:51.814Z,967.89
2022-08-29T13:24:52.077Z,967.93
2022-08-29T13:25:52.398Z,967.95
2022-08-29T13:27:05.641Z,967.91
2022-08-29T13:27:54.616Z,967.89
2022-08-29T13:28:53.169Z,967.87
2022-08-29T13:29:53.490Z,967.93
2022-08-29T13:30:53.802Z,967.91
2022-08-29T13:31:54.122Z,967.94
2022-08-29T13:32:54.405Z,967.95
2022-08-29T13:33:54.678Z,967.96
2022-08-29T13:34:54.982Z,967.96
2022-08-29T13:35:55.266Z,967.94
2022-08-29T13:36:55.578Z,967.92
2022-08-29T13:37:55.908Z,967.95
2022-08-29T13:38:56.198Z,967.92
2022-08-29T13:39:56.589Z,967.96
2022-08-29T13:40:56.825Z,967.93
2022-08-29T13:41:57.128Z,967.96
2022-08-29T13:42:57.407Z,967.90
2022-08-29T13:43:57.690Z,967.91
2022-08-29T13:44:57.973Z,967.94
2022-08-29T13:45:58.324Z,967.91
2022-08-29T13:46:58.555Z,967.90
2022-08-29T13:47:58.880Z,967.85
2022-08-29T13:48:59.182Z,967.86
2022-08-29T13:49:59.559Z,967.86
2022-08-29T13:51:03.397Z,967.87
2022-08-29T13:52:01.059Z,967.87
2022-08-29T13:53:00.439Z,967.87
2022-08-29T13:54:00.730Z,967.83
2022-08-29T13:55:01.029Z,967.83
2022-08-29T13:56:01.329Z,967.91
2022-08-29T13:57:03.323Z,967.84
2022-08-29T13:58:01.871Z,967.87
2022-08-29T13:59:02.173Z,967.83
2022-08-29T14:00:02.467Z,967.86
2022-08-29T14:01:29.476Z,967.80
2022-08-29T14:02:08.886Z,967.82
2022-08-29T14:03:04.671Z,967.81
2022-08-29T14:04:34.170Z,967.81
2022-08-29T14:05:04.982Z,967.82
2022-08-29T14:06:04.395Z,967.77
2022-08-29T14:07:04.562Z,967.76
2022-08-29T14:08:04.870Z,967.76
2022-08-29T14:09:05.173Z,967.75
2022-08-29T14:10:05.462Z,967.73
2022-08-29T14:11:05.781Z,967.75
2022-08-29T14:12:07.085Z,967.75
2022-08-29T14:13:06.334Z,967.72
2022-08-29T14:14:06.678Z,967.74
2022-08-29T14:15:09.633Z,967.77
2022-08-29T14:16:07.156Z,967.78
2022-08-29T14:17:07.361Z,967.79
2022-08-29T14:18:07.643Z,967.72
2022-08-29T14:19:07.958Z,967.74
2022-08-29T14:20:08.340Z,967.76
2022-08-29T14:21:08.524Z,967.76
2022-08-29T14:22:08.827Z,967.72
2022-08-29T14:23:09.121Z,967.69
2022-08-29T14:24:09.445Z,967.67
2022-08-29T14:25:09.739Z,967.72
2022-08-29T14:26:10.032Z,967.66
2022-08-29T14:27:10.316Z,967.65
2022-08-29T14:28:10.618Z,967.67
2022-08-29T14:29:11.903Z,967.68
2022-08-29T14:30:11.120Z,967.61
2022-08-29T14:31:11.521Z,967.63
2022-08-29T14:32:11.742Z,967.61
2022-08-29T14:33:12.041Z,967.60
2022-08-29T14:34:12.335Z,967.57
2022-08-29T14:35:25.906Z,967.53
2022-08-29T14:36:13.945Z,967.56
2022-08-29T14:37:13.170Z,967.56